createdAt,value
2022-08-17T00:01:32.753Z,7.70
2022-08-17T00:04:21.102Z,6.77
2022-08-17T00:06:49.463Z,6.10
2022-08-17T00:09:18.939Z,6.80
2022-08-17T00:12:34.956Z,7.33
2022-08-17T00:14:34.947Z,11.10
2022-08-17T00:17:03.910Z,9.73
2022-08-17T00:19:32.469Z,7.47
2022-08-17T00:22:34.061Z,6.13
2022-08-17T00:24:47.457Z,8.10
2022-08-17T00:27:14.106Z,7.70
2022-08-17T00:29:40.719Z,11.30
2022-08-17T00:33:12.632Z,6.40
2022-08-17T00:34:54.219Z,9.27
2022-08-17T00:37:20.826Z,8.43
2022-08-17T00:39:47.522Z,6.30
2022-08-17T00:42:16.984Z,7.07
2022-08-17T00:44:43.495Z,9.03
2022-08-17T00:47:10.027Z,9.17
2022-08-17T00:49:36.682Z,7.83
2022-08-17T00:52:11.614Z,8.33
2022-08-17T00:54:40.983Z,6.80
2022-08-17T00:57:12.054Z,6.17
2022-08-17T00:59:41.677Z,8.67
2022-08-17T01:02:10.041Z,7.07
2022-08-17T01:04:37.581Z,10.10
2022-08-17T01:07:05.676Z,7.23
2022-08-17T01:09:33.373Z,7.53
2022-08-17T01:12:00.180Z,7.83
2022-08-17T01:14:26.858Z,7.00
2022-08-17T01:16:54.686Z,9.03
2022-08-17T01:19:23.985Z,9.13
2022-08-17T01:21:55.362Z,7.10
2022-08-17T01:24:22.101Z,8.17
2022-08-17T01:26:48.785Z,9.13
2022-08-17T01:29:16.705Z,11.53
2022-08-17T01:31:47.606Z,9.77
2022-08-17T01:34:16.338Z,8.27
2022-08-17T01:36:46.661Z,8.20
2022-08-17T01:39:26.494Z,7.00
2022-08-17T01:41:59.303Z,8.90
2022-08-17T01:44:26.918Z,9.23
2022-08-17T01:46:54.459Z,6.07
2022-08-17T01:49:21.128Z,9.63
2022-08-17T01:51:47.762Z,7.30
2022-08-17T01:54:17.284Z,7.70
2022-08-17T01:56:47.742Z,9.67
2022-08-17T01:59:15.548Z,9.83
2022-08-17T02:01:43.664Z,9.33
2022-08-17T02:04:11.006Z,7.17
2022-08-17T02:06:45.312Z,6.93
2022-08-17T02:09:20.119Z,7.20
2022-08-17T02:11:52.322Z,6.93
2022-08-17T02:14:20.820Z,9.27
2022-08-17T02:16:47.405Z,7.13
2022-08-17T02:19:15.910Z,7.03
2022-08-17T02:21:47.058Z,7.00
2022-08-17T02:24:18.113Z,8.77
2022-08-17T02:27:05.326Z,8.90
2022-08-17T02:29:32.455Z,9.20
2022-08-17T02:32:00.163Z,7.83
2022-08-17T02:34:27.557Z,8.67
2022-08-17T02:36:54.085Z,8.17
2022-08-17T02:39:20.749Z,8.20
2022-08-17T02:41:47.392Z,7.77
2022-08-17T02:44:14.077Z,8.87
2022-08-17T02:47:01.038Z,9.17
2022-08-17T02:49:27.687Z,8.37
2022-08-17T02:51:54.255Z,7.37
2022-08-17T02:54:40.354Z,7.47
2022-08-17T02:57:07.363Z,6.93
2022-08-17T02:59:34.003Z,13.07
2022-08-17T03:02:00.697Z,7.37
2022-08-17T03:04:27.245Z,10.23
2022-08-17T03:06:53.954Z,7.80
2022-08-17T03:09:20.442Z,10.07
2022-08-17T03:11:47.633Z,7.83
2022-08-17T03:14:17.025Z,7.60
2022-08-17T03:16:44.905Z,8.37
2022-08-17T03:19:11.921Z,8.70
2022-08-17T03:21:38.509Z,7.97
2022-08-17T03:24:09.044Z,7.93
2022-08-17T03:26:35.835Z,10.00
2022-08-17T03:29:02.352Z,9.13
2022-08-17T03:31:28.945Z,10.70
2022-08-17T03:33:56.447Z,7.13
2022-08-17T03:36:23.605Z,9.80
2022-08-17T03:38:50.258Z,7.43
2022-08-17T03:41:17.691Z,7.67
2022-08-17T03:43:44.176Z,12.63
2022-08-17T03:46:35.164Z,7.50
2022-08-17T03:49:25.069Z,8.40
2022-08-17T03:52:10.668Z,6.80
2022-08-17T03:54:56.189Z,9.10
2022-08-17T03:57:23.306Z,8.83
2022-08-17T03:59:50.430Z,10.17
2022-08-17T04:02:31.658Z,8.67
2022-08-17T04:04:58.722Z,9.80
2022-08-17T04:07:27.494Z,8.47
2022-08-17T04:09:54.171Z,8.30
2022-08-17T04:12:22.367Z,11.07
2022-08-17T04:14:52.945Z,9.43
2022-08-17T04:17:26.986Z,14.50
2022-08-17T04:19:54.744Z,9.20
2022-08-17T04:22:32.790Z,9.80
2022-08-17T04:25:17.089Z,6.97
2022-08-17T04:27:43.653Z,7.93
2022-08-17T04:30:10.877Z,8.57
2022-08-17T04:33:05.012Z,9.13
2022-08-17T04:35:38.776Z,7.20
2022-08-17T04:38:06.565Z,10.20
2022-08-17T04:40:51.950Z,7.00
2022-08-17T04:43:20.987Z,9.53
2022-08-17T04:45:55.783Z,12.47
2022-08-17T04:48:35.255Z,11.87
2022-08-17T04:51:06.947Z,9.13
2022-08-17T04:53:33.559Z,8.00
2022-08-17T04:56:00.060Z,8.03
2022-08-17T04:58:26.740Z,7.83
2022-08-17T05:00:53.544Z,8.97
2022-08-17T05:03:20.089Z,10.30
2022-08-17T05:05:50.039Z,8.50
2022-08-17T05:08:18.988Z,8.47
2022-08-17T05:10:46.917Z,10.03
2022-08-17T05:13:22.376Z,9.60
2022-08-17T05:15:57.092Z,8.60
2022-08-17T05:18:24.451Z,8.00
2022-08-17T05:20:52.481Z,10.20
2022-08-17T05:23:21.238Z,9.97
2022-08-17T05:25:50.421Z,11.50
2022-08-17T05:28:18.899Z,14.53
2022-08-17T05:30:50.651Z,9.93
2022-08-17T05:33:21.254Z,14.53
2022-08-17T05:35:50.765Z,10.33
2022-08-17T05:38:19.633Z,12.73
2022-08-17T05:40:46.729Z,9.97
2022-08-17T05:43:25.303Z,15.17
2022-08-17T05:46:15.806Z,12.73
2022-08-17T05:48:51.704Z,16.97
2022-08-17T05:51:43.522Z,14.37
2022-08-17T05:54:47.764Z,11.80
2022-08-17T05:57:39.919Z,10.13
2022-08-17T06:00:19.295Z,12.93
2022-08-17T06:02:53.009Z,12.67
2022-08-17T06:05:52.515Z,12.73
2022-08-17T06:08:31.109Z,12.37
2022-08-17T06:11:16.381Z,14.30
2022-08-17T06:14:08.204Z,15.00
2022-08-17T06:16:39.069Z,13.63
2022-08-17T06:19:13.063Z,15.03
2022-08-17T06:21:42.570Z,11.60
2022-08-17T06:24:18.313Z,13.33
2022-08-17T06:26:45.625Z,14.10
2022-08-17T06:29:52.589Z,17.37
2022-08-17T06:32:19.424Z,11.77
2022-08-17T06:34:46.417Z,13.93
2022-08-17T06:37:28.562Z,12.07
2022-08-17T06:40:20.174Z,12.33
2022-08-17T06:43:13.489Z,13.83
2022-08-17T06:45:58.715Z,11.13
2022-08-17T06:48:31.061Z,15.13
2022-08-17T06:51:15.040Z,15.53
2022-08-17T06:54:05.395Z,17.97
2022-08-17T06:56:53.169Z,13.83
2022-08-17T06:59:26.248Z,17.17
2022-08-17T07:02:05.425Z,12.90
2022-08-17T07:04:34.432Z,13.10
2022-08-17T07:07:27.883Z,16.40
2022-08-17T07:09:57.475Z,16.77
2022-08-17T07:12:38.553Z,13.37
2022-08-17T07:15:16.582Z,13.40
2022-08-17T07:17:47.448Z,18.13
2022-08-17T07:20:17.741Z,17.87
2022-08-17T07:23:06.269Z,11.53
2022-08-17T07:25:33.048Z,13.60
2022-08-17T07:28:02.548Z,12.97
2022-08-17T07:30:47.616Z,11.90
2022-08-17T07:33:32.491Z,14.87
2022-08-17T07:35:59.363Z,11.37
2022-08-17T07:38:28.516Z,8.97
2022-08-17T07:40:59.930Z,13.60
2022-08-17T07:43:41.310Z,11.73
2022-08-17T07:46:36.756Z,11.67
2022-08-17T07:49:03.535Z,17.27
2022-08-17T07:51:39.214Z,16.23
2022-08-17T07:54:15.258Z,12.63
2022-08-17T07:56:41.856Z,14.53
2022-08-17T07:59:18.240Z,13.27
2022-08-17T08:02:01.209Z,14.57
2022-08-17T08:04:59.369Z,10.07
2022-08-17T08:07:32.018Z,9.90
2022-08-17T08:10:12.449Z,11.50
2022-08-17T08:12:46.246Z,10.43
2022-08-17T08:15:18.983Z,8.53
2022-08-17T08:17:57.641Z,5.20
2022-08-17T08:20:53.120Z,8.03
2022-08-17T08:23:39.650Z,7.00
2022-08-17T08:26:18.860Z,16.87
2022-08-17T08:29:01.616Z,7.03
2022-08-17T08:31:43.358Z,7.37
2022-08-17T08:35:00.860Z,8.80
2022-08-17T08:37:32.602Z,6.80
2022-08-17T08:40:35.678Z,22.73
2022-08-17T08:43:40.420Z,10.17
2022-08-17T08:46:28.556Z,9.77
2022-08-17T08:49:45.138Z,9.03
2022-08-17T08:52:31.148Z,4.53
2022-08-17T08:55:21.940Z,4.60
2022-08-17T08:58:05.226Z,4.77
2022-08-17T09:00:35.770Z,7.70
2022-08-17T09:03:37.602Z,10.80
2022-08-17T09:06:38.533Z,7.83
2022-08-17T09:09:25.109Z,7.87
2022-08-17T09:12:02.320Z,6.03
2022-08-17T09:14:45.157Z,7.33
2022-08-17T09:17:16.412Z,7.57
2022-08-17T09:20:11.354Z,4.57
2022-08-17T09:22:48.053Z,4.60
2022-08-17T09:25:22.376Z,5.23
2022-08-17T09:28:01.081Z,3.80
2022-08-17T09:30:30.003Z,4.33
2022-08-17T09:32:59.510Z,5.87
2022-08-17T09:35:36.904Z,5.00
2022-08-17T09:38:22.126Z,7.17
2022-08-17T09:41:06.481Z,5.97
2022-08-17T09:43:45.224Z,6.00
2022-08-17T09:46:19.969Z,5.43
2022-08-17T09:49:15.070Z,4.77
2022-08-17T09:51:45.602Z,4.63
2022-08-17T09:54:40.528Z,4.97
2022-08-17T09:57:32.975Z,4.60
2022-08-17T10:00:07.954Z,6.43
2022-08-17T10:02:43.120Z,5.87
2022-08-17T10:05:28.558Z,7.57
2022-08-17T10:08:07.086Z,7.50
2022-08-17T10:10:39.562Z,5.23
2022-08-17T10:13:19.762Z,14.53
2022-08-17T10:16:09.410Z,7.73
2022-08-17T10:18:54.328Z,4.20
2022-08-17T10:21:40.578Z,5.37
2022-08-17T10:24:36.510Z,9.20
2022-08-17T10:27:09.510Z,6.80
2022-08-17T10:29:59.876Z,5.40
2022-08-17T10:32:37.752Z,7.67
2022-08-17T10:35:37.096Z,9.13
2022-08-17T10:38:30.244Z,8.57
2022-08-17T10:40:59.706Z,9.73
2022-08-17T10:43:36.228Z,6.43
2022-08-17T10:46:31.159Z,9.37
2022-08-17T10:49:17.119Z,9.00
2022-08-17T10:51:47.814Z,8.77
2022-08-17T10:54:47.339Z,10.97
2022-08-17T10:57:29.215Z,11.63
2022-08-17T10:59:57.431Z,9.97
2022-08-17T11:02:54.779Z,6.97
2022-08-17T11:05:43.866Z,12.17
2022-08-17T11:08:48.686Z,12.80
2022-08-17T11:11:34.558Z,11.20
2022-08-17T11:14:25.767Z,9.07
2022-08-17T11:17:12.223Z,10.40
2022-08-17T11:19:42.113Z,13.47
2022-08-17T11:22:33.324Z,11.43
2022-08-17T11:25:14.857Z,13.27
2022-08-17T11:27:43.397Z,15.77
2022-08-17T11:30:48.884Z,13.73
2022-08-17T11:33:34.160Z,14.40
2022-08-17T11:36:06.488Z,18.17
2022-08-17T11:38:58.012Z,10.27
2022-08-17T11:41:35.108Z,9.93
2022-08-17T11:44:10.651Z,15.97
2022-08-17T11:47:40.149Z,12.33
2022-08-17T11:50:44.096Z,13.03
2022-08-17T11:53:39.778Z,22.93
2022-08-17T11:56:50.902Z,15.97
2022-08-17T11:59:43.816Z,15.87
2022-08-17T12:02:32.446Z,12.07
2022-08-17T12:05:14.614Z,18.53
2022-08-17T12:07:56.270Z,13.27
2022-08-17T12:10:32.004Z,21.43
2022-08-17T12:12:59.765Z,16.37
2022-08-17T12:15:34.917Z,17.47
2022-08-17T12:18:01.474Z,18.17
2022-08-17T12:20:38.122Z,15.30
2022-08-17T12:23:36.224Z,15.93
2022-08-17T12:26:12.278Z,16.53
2022-08-17T12:28:45.364Z,13.10
2022-08-17T12:31:25.102Z,20.33
2022-08-17T12:33:51.906Z,18.10
2022-08-17T12:36:25.918Z,16.67
2022-08-17T12:39:14.113Z,21.30
2022-08-17T12:41:47.470Z,18.23
2022-08-17T12:44:14.136Z,23.70
2022-08-17T12:46:52.370Z,24.70
2022-08-17T12:49:35.680Z,21.43
2022-08-17T12:52:05.760Z,23.87
2022-08-17T12:54:38.139Z,22.33
2022-08-17T12:57:09.775Z,19.17
2022-08-17T12:59:41.087Z,24.70
2022-08-17T13:02:11.061Z,20.03
2022-08-17T13:04:40.029Z,16.70
2022-08-17T13:07:07.006Z,25.97
2022-08-17T13:09:39.936Z,26.53
2022-08-17T13:12:07.999Z,21.97
2022-08-17T13:14:35.380Z,20.67
2022-08-17T13:17:09.691Z,21.73
2022-08-17T13:19:48.237Z,22.37
2022-08-17T13:22:15.006Z,24.87
2022-08-17T13:24:53.092Z,19.50
2022-08-17T13:27:22.058Z,16.37
2022-08-17T13:29:55.852Z,21.73
2022-08-17T13:32:46.537Z,23.17
2022-08-17T13:35:32.954Z,22.70
2022-08-17T13:38:36.033Z,20.60
2022-08-17T13:41:04.065Z,17.40
2022-08-17T13:43:48.591Z,21.00
2022-08-17T13:46:18.297Z,19.67
2022-08-17T13:48:44.907Z,24.67
2022-08-17T13:51:14.964Z,18.00
2022-08-17T13:53:41.523Z,26.30
2022-08-17T13:56:37.204Z,25.67
2022-08-17T13:59:36.361Z,20.53
2022-08-17T14:02:13.619Z,28.57
2022-08-17T14:04:42.309Z,22.17
2022-08-17T14:07:08.898Z,28.40
2022-08-17T14:09:47.245Z,27.87
2022-08-17T14:12:16.366Z,23.53
2022-08-17T14:14:44.653Z,24.17
2022-08-17T14:17:12.407Z,22.30
2022-08-17T14:19:39.630Z,26.90
2022-08-17T14:22:09.080Z,29.13
2022-08-17T14:24:43.943Z,28.30
2022-08-17T14:27:12.114Z,26.20
2022-08-17T14:29:41.020Z,22.80
2022-08-17T14:32:41.430Z,28.07
2022-08-17T14:35:09.757Z,28.10
2022-08-17T14:37:36.533Z,25.87
2022-08-17T14:40:07.665Z,28.93
2022-08-17T14:42:35.967Z,28.87
2022-08-17T14:45:06.297Z,29.90
2022-08-17T14:47:52.917Z,24.10
2022-08-17T14:50:22.371Z,24.80
2022-08-17T14:52:49.164Z,27.40
2022-08-17T14:55:20.738Z,26.97
2022-08-17T14:57:47.293Z,26.07
2022-08-17T15:00:17.004Z,23.27
2022-08-17T15:02:56.086Z,27.33
2022-08-17T15:05:24.930Z,31.77
2022-08-17T15:07:53.436Z,32.70
2022-08-17T15:10:20.276Z,31.43
2022-08-17T15:12:46.958Z,38.27
2022-08-17T15:15:16.500Z,36.37
2022-08-17T15:17:45.979Z,34.77
2022-08-17T15:20:15.889Z,35.00
2022-08-17T15:22:43.913Z,38.43
2022-08-17T15:25:11.003Z,38.93
2022-08-17T15:27:37.514Z,36.50
2022-08-17T15:30:05.730Z,37.67
2022-08-17T15:32:38.210Z,38.27
2022-08-17T15:35:07.444Z,37.83
2022-08-17T15:37:34.069Z,45.37
2022-08-17T15:40:01.219Z,46.80
2022-08-17T15:42:29.254Z,40.93
2022-08-17T15:44:55.950Z,34.93
2022-08-17T15:47:22.680Z,30.93
2022-08-17T15:49:49.219Z,38.07
2022-08-17T15:52:24.186Z,40.13
2022-08-17T15:54:55.398Z,41.70
2022-08-17T15:57:24.564Z,40.17
2022-08-17T15:59:55.368Z,44.47
2022-08-17T16:03:46.007Z,37.13
2022-08-17T16:05:23.444Z,35.90
2022-08-17T16:07:51.863Z,37.30
2022-08-17T16:10:19.347Z,37.43
2022-08-17T16:12:47.644Z,36.67
2022-08-17T16:15:14.597Z,34.40
2022-08-17T16:17:44.583Z,32.80
2022-08-17T16:20:20.004Z,30.40
2022-08-17T16:22:49.697Z,34.60
2022-08-17T16:25:53.053Z,31.53
2022-08-17T16:28:15.193Z,33.15
2022-08-17T16:30:42.156Z,35.90
2022-08-17T16:33:11.316Z,31.90
2022-08-17T16:35:38.002Z,30.03
2022-08-17T16:38:04.968Z,28.60
2022-08-17T16:40:36.056Z,34.40
2022-08-17T16:43:03.986Z,33.67
2022-08-17T16:45:36.713Z,29.27
2022-08-17T16:48:04.150Z,33.10
2022-08-17T16:50:32.024Z,28.50
2022-08-17T16:53:17.436Z,25.80
2022-08-17T16:55:45.685Z,32.23
2022-08-17T16:58:12.462Z,31.10
2022-08-17T17:00:42.527Z,34.20
2022-08-17T17:03:18.136Z,44.87
2022-08-17T17:05:58.004Z,45.73
2022-08-17T17:08:26.678Z,46.23
2022-08-17T17:10:56.023Z,43.97
2022-08-17T17:13:37.775Z,44.90
2022-08-17T17:16:29.326Z,46.20
2022-08-17T17:19:07.738Z,46.10
2022-08-17T17:22:07.512Z,44.40
2022-08-17T17:24:41.246Z,48.20
2022-08-17T17:27:17.799Z,48.43
2022-08-17T17:30:11.870Z,49.80
2022-08-17T17:32:48.647Z,51.27
2022-08-17T17:35:20.407Z,54.80
2022-08-17T17:37:47.553Z,50.67
2022-08-17T17:40:17.479Z,43.07
2022-08-17T17:42:45.059Z,45.83
2022-08-17T17:45:26.453Z,46.57
2022-08-17T17:47:53.257Z,43.37
2022-08-17T17:50:21.854Z,44.23
2022-08-17T17:53:09.029Z,41.10
2022-08-17T17:55:38.535Z,39.60
2022-08-17T17:58:26.443Z,42.27
2022-08-17T18:01:29.091Z,37.07
2022-08-17T18:04:17.042Z,39.67
2022-08-17T18:07:05.917Z,35.20
2022-08-17T18:10:02.000Z,39.43
2022-08-17T18:13:11.349Z,36.10
2022-08-17T18:15:51.134Z,38.90
2022-08-17T18:18:17.779Z,38.67
2022-08-17T18:20:53.699Z,36.37
2022-08-17T18:23:27.579Z,34.27
2022-08-17T18:25:55.004Z,36.17
2022-08-17T18:28:44.921Z,33.53
2022-08-17T18:31:21.745Z,33.00
2022-08-17T18:33:51.493Z,36.40
2022-08-17T18:36:33.375Z,35.23
2022-08-17T18:39:18.861Z,33.13
2022-08-17T18:41:48.586Z,30.90
2022-08-17T18:44:28.600Z,27.57
2022-08-17T18:47:16.770Z,27.67
2022-08-17T18:49:57.325Z,24.43
2022-08-17T18:52:24.095Z,31.57
2022-08-17T18:55:05.591Z,19.97
2022-08-17T18:57:37.950Z,31.43
2022-08-17T19:00:18.691Z,23.43
2022-08-17T19:02:57.658Z,27.97
2022-08-17T19:05:40.606Z,27.00
2022-08-17T19:08:25.897Z,29.60
2022-08-17T19:11:04.681Z,33.60
2022-08-17T19:13:34.140Z,31.77
2022-08-17T19:16:35.014Z,23.40
2022-08-17T19:19:17.093Z,33.33
2022-08-17T19:21:47.191Z,32.40
2022-08-17T19:24:23.467Z,32.03
2022-08-17T19:26:57.665Z,32.77
2022-08-17T19:29:32.237Z,37.13
2022-08-17T19:32:00.894Z,30.83
2022-08-17T19:34:33.871Z,32.33
2022-08-17T19:37:14.635Z,37.90
2022-08-17T19:39:49.840Z,37.90
2022-08-17T19:42:41.351Z,39.53
2022-08-17T19:45:29.615Z,40.00
2022-08-17T19:48:05.511Z,37.43
2022-08-17T19:50:41.465Z,38.13
2022-08-17T19:54:04.977Z,42.30
2022-08-17T19:56:41.910Z,38.77
2022-08-17T19:59:36.055Z,41.03
2022-08-17T20:02:19.934Z,39.83
2022-08-17T20:04:49.038Z,44.60
2022-08-17T20:07:20.399Z,44.10
2022-08-17T20:09:55.478Z,42.97
2022-08-17T20:12:31.491Z,32.10
2022-08-17T20:15:25.961Z,34.23
2022-08-17T20:17:53.026Z,25.60
2022-08-17T20:20:38.864Z,28.23
2022-08-17T20:23:12.609Z,30.83
2022-08-17T20:26:06.854Z,29.23
2022-08-17T20:28:35.313Z,35.27
2022-08-17T20:31:02.432Z,27.63
2022-08-17T20:33:35.016Z,27.47
2022-08-17T20:36:13.038Z,27.93
2022-08-17T20:38:46.008Z,27.93
2022-08-17T20:41:22.511Z,29.20
2022-08-17T20:43:55.362Z,27.03
2022-08-17T20:46:36.967Z,27.83
2022-08-17T20:49:27.077Z,28.43
2022-08-17T20:52:01.467Z,28.97
2022-08-17T20:55:02.816Z,35.33
2022-08-17T20:57:32.553Z,35.83
2022-08-17T21:00:14.998Z,36.73
2022-08-17T21:02:44.938Z,44.27
2022-08-17T21:05:34.598Z,40.90
2022-08-17T21:08:31.427Z,39.30
2022-08-17T21:11:00.069Z,36.57
2022-08-17T21:13:55.885Z,39.47
2022-08-17T21:16:30.877Z,42.73
2022-08-17T21:19:17.030Z,47.30
2022-08-17T21:22:03.215Z,42.63
2022-08-17T21:24:50.989Z,36.67
2022-08-17T21:27:23.941Z,38.97
2022-08-17T21:30:11.926Z,35.27
2022-08-17T21:32:40.496Z,35.10
2022-08-17T21:35:12.334Z,41.27
2022-08-17T21:37:39.144Z,40.70
2022-08-17T21:40:18.113Z,42.03
2022-08-17T21:43:17.944Z,41.30
2022-08-17T21:45:55.461Z,38.00
2022-08-17T21:48:24.612Z,45.70
2022-08-17T21:51:03.744Z,49.87
2022-08-17T21:53:58.110Z,48.80
2022-08-17T21:56:38.390Z,48.97
2022-08-17T21:59:20.197Z,51.57
2022-08-17T22:01:59.941Z,47.13
2022-08-17T22:04:29.604Z,50.37
2022-08-17T22:06:57.895Z,48.37
2022-08-17T22:09:33.721Z,49.07
2022-08-17T22:12:01.825Z,48.93
2022-08-17T22:14:54.299Z,52.07
2022-08-17T22:17:37.865Z,40.23
2022-08-17T22:20:18.158Z,35.13
2022-08-17T22:23:12.548Z,33.33
2022-08-17T22:25:57.597Z,31.93
2022-08-17T22:28:42.950Z,31.73
2022-08-17T22:31:14.522Z,31.73
2022-08-17T22:33:51.729Z,31.60
2022-08-17T22:36:34.717Z,29.23
2022-08-17T22:39:04.350Z,32.07
2022-08-17T22:41:32.065Z,31.33
2022-08-17T22:44:09.306Z,34.17
2022-08-17T22:46:39.767Z,30.00
2022-08-17T22:49:06.606Z,35.83
2022-08-17T22:51:33.284Z,33.67
2022-08-17T22:54:34.035Z,36.27
2022-08-17T22:57:21.932Z,33.70
2022-08-17T22:59:53.934Z,35.53
2022-08-17T23:02:25.735Z,35.50
2022-08-17T23:05:11.527Z,32.87
2022-08-17T23:07:38.412Z,32.60
2022-08-17T23:10:07.542Z,33.77
2022-08-17T23:12:39.813Z,30.70
2022-08-17T23:15:14.434Z,30.57
2022-08-17T23:17:42.061Z,32.10
2022-08-17T23:20:12.503Z,31.70
2022-08-17T23:22:51.089Z,32.43
2022-08-17T23:25:25.397Z,31.97
2022-08-17T23:27:52.170Z,32.70
2022-08-17T23:30:19.038Z,33.57
2022-08-17T23:32:53.674Z,33.20
2022-08-17T23:35:39.697Z,31.03
2022-08-17T23:38:09.379Z,32.97
2022-08-17T23:40:36.090Z,33.00
2022-08-17T23:43:06.012Z,33.73
2022-08-17T23:45:44.338Z,35.07
2022-08-17T23:48:10.854Z,31.03
2022-08-17T23:50:38.441Z,30.03
2022-08-17T23:53:05.910Z,30.60
2022-08-17T23:55:34.812Z,29.63
2022-08-17T23:58:03.970Z,31.33
